sensor_id;sensor_type;location;lat;lon;timestamp;P1;durP1;ratioP1;P2;durP2;ratioP2
8232;SDS011;4157;48.074;9.952;2023-05-19T00:01:17;6.22;;;2.70;;
8232;SDS011;4157;48.074;9.952;2023-05-19T00:03:48;5.10;;;2.53;;
8232;SDS011;4157;48.074;9.952;2023-05-19T00:06:22;5.50;;;2.40;;
8232;SDS011;4157;48.074;9.952;2023-05-19T00:08:52;5.05;;;2.83;;
8232;SDS011;4157;48.074;9.952;2023-05-19T00:11:22;5.90;;;2.55;;
8232;SDS011;4157;48.074;9.952;2023-05-19T00:13:50;7.13;;;2.70;;
8232;SDS011;4157;48.074;9.952;2023-05-19T00:16:19;6.45;;;2.78;;
8232;SDS011;4157;48.074;9.952;2023-05-19T00:18:47;6.63;;;2.65;;
8232;SDS011;4157;48.074;9.952;2023-05-19T00:21:16;6.30;;;2.85;;
8232;SDS011;4157;48.074;9.952;2023-05-19T00:23:44;5.47;;;2.47;;
8232;SDS011;4157;48.074;9.952;2023-05-19T00:26:11;5.82;;;2.80;;
8232;SDS011;4157;48.074;9.952;2023-05-19T00:28:49;4.88;;;2.45;;
8232;SDS011;4157;48.074;9.952;2023-05-19T00:31:18;6.25;;;2.88;;
8232;SDS011;4157;48.074;9.952;2023-05-19T00:33:46;5.03;;;2.60;;
8232;SDS011;4157;48.074;9.952;2023-05-19T00:36:13;5.90;;;3.08;;
8232;SDS011;4157;48.074;9.952;2023-05-19T00:38:41;5.18;;;2.35;;
8232;SDS011;4157;48.074;9.952;2023-05-19T00:41:09;5.07;;;2.90;;
8232;SDS011;4157;48.074;9.952;2023-05-19T00:43:36;5.10;;;2.42;;
8232;SDS011;4157;48.074;9.952;2023-05-19T00:46:04;5.63;;;2.80;;
8232;SDS011;4157;48.074;9.952;2023-05-19T00:48:34;6.00;;;2.72;;
8232;SDS011;4157;48.074;9.952;2023-05-19T00:51:01;5.38;;;2.58;;
8232;SDS011;4157;48.074;9.952;2023-05-19T00:53:31;5.90;;;3.10;;
8232;SDS011;4157;48.074;9.952;2023-05-19T00:56:00;5.60;;;2.95;;
8232;SDS011;4157;48.074;9.952;2023-05-19T00:58:28;4.95;;;2.63;;
8232;SDS011;4157;48.074;9.952;2023-05-19T01:00:57;7.30;;;2.88;;
8232;SDS011;4157;48.074;9.952;2023-05-19T01:03:28;5.25;;;3.17;;
8232;SDS011;4157;48.074;9.952;2023-05-19T01:05:58;5.25;;;2.90;;
8232;SDS011;4157;48.074;9.952;2023-05-19T01:08:30;6.20;;;2.90;;
8232;SDS011;4157;48.074;9.952;2023-05-19T01:10:58;6.28;;;3.00;;
8232;SDS011;4157;48.074;9.952;2023-05-19T01:13:26;6.28;;;3.63;;
8232;SDS011;4157;48.074;9.952;2023-05-19T01:15:56;6.38;;;3.40;;
8232;SDS011;4157;48.074;9.952;2023-05-19T01:18:28;5.05;;;3.13;;
8232;SDS011;4157;48.074;9.952;2023-05-19T01:21:05;7.55;;;3.47;;
8232;SDS011;4157;48.074;9.952;2023-05-19T01:23:42;7.05;;;3.63;;
8232;SDS011;4157;48.074;9.952;2023-05-19T01:26:17;6.65;;;3.88;;
8232;SDS011;4157;48.074;9.952;2023-05-19T01:28:54;7.38;;;3.65;;
8232;SDS011;4157;48.074;9.952;2023-05-19T01:31:25;8.23;;;4.13;;
8232;SDS011;4157;48.074;9.952;2023-05-19T01:33:53;5.57;;;3.50;;
8232;SDS011;4157;48.074;9.952;2023-05-19T01:36:22;6.97;;;3.95;;
8232;SDS011;4157;48.074;9.952;2023-05-19T01:38:53;7.75;;;3.95;;
8232;SDS011;4157;48.074;9.952;2023-05-19T01:41:22;7.68;;;4.13;;
8232;SDS011;4157;48.074;9.952;2023-05-19T01:43:51;7.85;;;4.85;;
8232;SDS011;4157;48.074;9.952;2023-05-19T01:46:19;9.15;;;4.80;;
8232;SDS011;4157;48.074;9.952;2023-05-19T01:48:48;9.50;;;4.63;;
8232;SDS011;4157;48.074;9.952;2023-05-19T01:51:16;7.35;;;4.65;;
8232;SDS011;4157;48.074;9.952;2023-05-19T01:53:44;9.45;;;5.13;;
8232;SDS011;4157;48.074;9.952;2023-05-19T01:56:13;8.20;;;4.53;;
8232;SDS011;4157;48.074;9.952;2023-05-19T01:58:43;9.05;;;4.95;;
8232;SDS011;4157;48.074;9.952;2023-05-19T02:01:15;10.52;;;4.63;;
8232;SDS011;4157;48.074;9.952;2023-05-19T02:03:51;10.85;;;4.45;;
8232;SDS011;4157;48.074;9.952;2023-05-19T02:06:23;7.38;;;4.65;;
8232;SDS011;4157;48.074;9.952;2023-05-19T02:08:55;8.70;;;4.60;;
8232;SDS011;4157;48.074;9.952;2023-05-19T02:11:25;9.50;;;5.00;;
8232;SDS011;4157;48.074;9.952;2023-05-19T02:13:54;9.95;;;4.95;;
8232;SDS011;4157;48.074;9.952;2023-05-19T02:16:23;10.32;;;5.53;;
8232;SDS011;4157;48.074;9.952;2023-05-19T02:18:55;7.82;;;4.43;;
8232;SDS011;4157;48.074;9.952;2023-05-19T02:21:24;8.43;;;4.82;;
8232;SDS011;4157;48.074;9.952;2023-05-19T02:23:54;10.30;;;4.85;;
8232;SDS011;4157;48.074;9.952;2023-05-19T02:26:22;9.13;;;4.82;;
8232;SDS011;4157;48.074;9.952;2023-05-19T02:28:50;11.57;;;5.22;;
8232;SDS011;4157;48.074;9.952;2023-05-19T02:31:18;9.20;;;5.05;;
8232;SDS011;4157;48.074;9.952;2023-05-19T02:33:46;10.45;;;5.85;;
8232;SDS011;4157;48.074;9.952;2023-05-19T02:36:15;9.73;;;4.70;;
8232;SDS011;4157;48.074;9.952;2023-05-19T02:38:43;9.43;;;5.25;;
8232;SDS011;4157;48.074;9.952;2023-05-19T02:41:11;9.30;;;5.25;;
8232;SDS011;4157;48.074;9.952;2023-05-19T02:43:39;12.85;;;5.25;;
8232;SDS011;4157;48.074;9.952;2023-05-19T02:46:07;13.63;;;5.80;;
8232;SDS011;4157;48.074;9.952;2023-05-19T02:48:34;10.55;;;5.82;;
8232;SDS011;4157;48.074;9.952;2023-05-19T02:51:02;7.60;;;4.60;;
8232;SDS011;4157;48.074;9.952;2023-05-19T02:53:31;8.63;;;5.53;;
8232;SDS011;4157;48.074;9.952;2023-05-19T02:55:59;10.07;;;5.20;;
8232;SDS011;4157;48.074;9.952;2023-05-19T02:58:27;14.13;;;6.15;;
8232;SDS011;4157;48.074;9.952;2023-05-19T03:00:55;9.00;;;5.30;;
8232;SDS011;4157;48.074;9.952;2023-05-19T03:03:23;9.85;;;5.40;;
8232;SDS011;4157;48.074;9.952;2023-05-19T03:05:51;11.10;;;5.25;;
8232;SDS011;4157;48.074;9.952;2023-05-19T03:08:19;11.30;;;5.75;;
8232;SDS011;4157;48.074;9.952;2023-05-19T03:10:48;8.18;;;5.10;;
8232;SDS011;4157;48.074;9.952;2023-05-19T03:13:16;11.25;;;5.40;;
8232;SDS011;4157;48.074;9.952;2023-05-19T03:15:43;8.25;;;4.75;;
8232;SDS011;4157;48.074;9.952;2023-05-19T03:18:12;12.23;;;5.93;;
8232;SDS011;4157;48.074;9.952;2023-05-19T03:20:41;11.60;;;5.50;;
8232;SDS011;4157;48.074;9.952;2023-05-19T03:23:09;14.93;;;6.53;;
8232;SDS011;4157;48.074;9.952;2023-05-19T03:25:37;12.63;;;5.70;;
8232;SDS011;4157;48.074;9.952;2023-05-19T03:28:08;11.30;;;5.65;;
8232;SDS011;4157;48.074;9.952;2023-05-19T03:30:36;10.20;;;5.78;;
8232;SDS011;4157;48.074;9.952;2023-05-19T03:33:11;13.18;;;6.50;;
8232;SDS011;4157;48.074;9.952;2023-05-19T03:35:39;11.90;;;5.68;;
8232;SDS011;4157;48.074;9.952;2023-05-19T03:38:09;10.68;;;5.82;;
8232;SDS011;4157;48.074;9.952;2023-05-19T03:40:39;12.25;;;6.22;;
8232;SDS011;4157;48.074;9.952;2023-05-19T03:43:12;12.85;;;5.50;;
8232;SDS011;4157;48.074;9.952;2023-05-19T03:45:45;12.23;;;6.53;;
8232;SDS011;4157;48.074;9.952;2023-05-19T03:48:39;10.77;;;5.78;;
8232;SDS011;4157;48.074;9.952;2023-05-19T03:51:20;11.02;;;6.18;;
8232;SDS011;4157;48.074;9.952;2023-05-19T03:53:51;12.98;;;6.50;;
8232;SDS011;4157;48.074;9.952;2023-05-19T03:56:18;13.27;;;6.38;;
8232;SDS011;4157;48.074;9.952;2023-05-19T03:58:49;10.52;;;5.75;;
8232;SDS011;4157;48.074;9.952;2023-05-19T04:01:19;13.70;;;6.18;;
8232;SDS011;4157;48.074;9.952;2023-05-19T04:03:47;16.60;;;6.78;;
8232;SDS011;4157;48.074;9.952;2023-05-19T04:06:15;12.98;;;6.53;;
8232;SDS011;4157;48.074;9.952;2023-05-19T04:08:43;14.38;;;6.60;;
8232;SDS011;4157;48.074;9.952;2023-05-19T04:11:14;13.02;;;6.13;;
8232;SDS011;4157;48.074;9.952;2023-05-19T04:13:41;11.93;;;6.00;;
8232;SDS011;4157;48.074;9.952;2023-05-19T04:16:12;14.55;;;6.15;;
8232;SDS011;4157;48.074;9.952;2023-05-19T04:18:41;14.95;;;6.22;;
8232;SDS011;4157;48.074;9.952;2023-05-19T04:21:13;15.93;;;6.75;;
8232;SDS011;4157;48.074;9.952;2023-05-19T04:23:40;11.82;;;5.95;;
8232;SDS011;4157;48.074;9.952;2023-05-19T04:26:09;13.05;;;5.93;;
8232;SDS011;4157;48.074;9.952;2023-05-19T04:28:37;13.63;;;6.78;;
8232;SDS011;4157;48.074;9.952;2023-05-19T04:31:07;12.90;;;6.07;;
8232;SDS011;4157;48.074;9.952;2023-05-19T04:33:36;11.50;;;5.60;;
8232;SDS011;4157;48.074;9.952;2023-05-19T04:36:04;13.07;;;5.90;;
8232;SDS011;4157;48.074;9.952;2023-05-19T04:38:35;13.05;;;6.28;;
8232;SDS011;4157;48.074;9.952;2023-05-19T04:41:04;11.60;;;5.88;;
8232;SDS011;4157;48.074;9.952;2023-05-19T04:43:35;11.80;;;5.78;;
8232;SDS011;4157;48.074;9.952;2023-05-19T04:46:08;13.30;;;6.30;;
8232;SDS011;4157;48.074;9.952;2023-05-19T04:48:38;14.88;;;6.22;;
8232;SDS011;4157;48.074;9.952;2023-05-19T04:51:06;11.00;;;5.65;;
8232;SDS011;4157;48.074;9.952;2023-05-19T04:53:34;11.98;;;5.95;;
8232;SDS011;4157;48.074;9.952;2023-05-19T04:56:04;16.88;;;6.28;;
8232;SDS011;4157;48.074;9.952;2023-05-19T04:58:32;14.10;;;6.40;;
8232;SDS011;4157;48.074;9.952;2023-05-19T05:01:00;11.43;;;5.32;;
8232;SDS011;4157;48.074;9.952;2023-05-19T05:03:29;13.70;;;5.70;;
8232;SDS011;4157;48.074;9.952;2023-05-19T05:06:01;13.35;;;5.50;;
8232;SDS011;4157;48.074;9.952;2023-05-19T05:08:29;15.73;;;6.10;;
8232;SDS011;4157;48.074;9.952;2023-05-19T05:10:58;13.77;;;6.47;;
8232;SDS011;4157;48.074;9.952;2023-05-19T05:13:26;11.45;;;5.50;;
8232;SDS011;4157;48.074;9.952;2023-05-19T05:15:54;10.98;;;5.43;;
8232;SDS011;4157;48.074;9.952;2023-05-19T05:18:22;11.90;;;5.90;;
8232;SDS011;4157;48.074;9.952;2023-05-19T05:20:50;10.00;;;5.47;;
8232;SDS011;4157;48.074;9.952;2023-05-19T05:23:20;12.60;;;6.07;;
8232;SDS011;4157;48.074;9.952;2023-05-19T05:25:48;14.18;;;6.22;;
8232;SDS011;4157;48.074;9.952;2023-05-19T05:28:18;13.27;;;6.20;;
8232;SDS011;4157;48.074;9.952;2023-05-19T05:30:46;9.52;;;5.97;;
8232;SDS011;4157;48.074;9.952;2023-05-19T05:33:15;11.10;;;5.70;;
8232;SDS011;4157;48.074;9.952;2023-05-19T05:35:44;12.55;;;6.70;;
8232;SDS011;4157;48.074;9.952;2023-05-19T05:38:13;14.45;;;5.68;;
8232;SDS011;4157;48.074;9.952;2023-05-19T05:40:42;11.75;;;5.63;;
8232;SDS011;4157;48.074;9.952;2023-05-19T05:43:10;11.98;;;5.95;;
8232;SDS011;4157;48.074;9.952;2023-05-19T05:45:45;14.68;;;5.65;;
8232;SDS011;4157;48.074;9.952;2023-05-19T05:48:12;9.27;;;5.38;;
8232;SDS011;4157;48.074;9.952;2023-05-19T05:50:41;13.45;;;5.78;;
8232;SDS011;4157;48.074;9.952;2023-05-19T05:53:09;12.07;;;6.30;;
8232;SDS011;4157;48.074;9.952;2023-05-19T05:55:40;15.93;;;5.72;;
8232;SDS011;4157;48.074;9.952;2023-05-19T05:58:09;10.93;;;6.35;;
8232;SDS011;4157;48.074;9.952;2023-05-19T06:00:40;14.50;;;5.68;;
8232;SDS011;4157;48.074;9.952;2023-05-19T06:03:08;11.27;;;5.38;;
8232;SDS011;4157;48.074;9.952;2023-05-19T06:05:36;11.55;;;5.43;;
8232;SDS011;4157;48.074;9.952;2023-05-19T06:08:04;12.40;;;6.35;;
8232;SDS011;4157;48.074;9.952;2023-05-19T06:10:32;9.23;;;5.47;;
8232;SDS011;4157;48.074;9.952;2023-05-19T06:13:06;13.05;;;5.53;;
8232;SDS011;4157;48.074;9.952;2023-05-19T06:15:36;11.75;;;5.82;;
8232;SDS011;4157;48.074;9.952;2023-05-19T06:18:09;12.48;;;5.50;;
8232;SDS011;4157;48.074;9.952;2023-05-19T06:20:38;10.82;;;5.60;;
8232;SDS011;4157;48.074;9.952;2023-05-19T06:23:06;10.32;;;5.95;;
8232;SDS011;4157;48.074;9.952;2023-05-19T06:25:34;14.23;;;6.15;;
8232;SDS011;4157;48.074;9.952;2023-05-19T06:28:02;11.52;;;5.20;;
8232;SDS011;4157;48.074;9.952;2023-05-19T06:30:31;10.68;;;5.38;;
8232;SDS011;4157;48.074;9.952;2023-05-19T06:33:09;12.27;;;5.45;;
8232;SDS011;4157;48.074;9.952;2023-05-19T06:35:37;12.02;;;5.68;;
8232;SDS011;4157;48.074;9.952;2023-05-19T06:38:05;13.18;;;5.07;;
8232;SDS011;4157;48.074;9.952;2023-05-19T06:40:33;11.88;;;5.93;;
8232;SDS011;4157;48.074;9.952;2023-05-19T06:43:01;13.48;;;5.65;;
8232;SDS011;4157;48.074;9.952;2023-05-19T06:45:47;10.25;;;5.57;;
8232;SDS011;4157;48.074;9.952;2023-05-19T06:48:16;8.27;;;5.32;;
8232;SDS011;4157;48.074;9.952;2023-05-19T06:50:44;10.73;;;6.05;;
8232;SDS011;4157;48.074;9.952;2023-05-19T06:53:12;12.05;;;5.65;;
8232;SDS011;4157;48.074;9.952;2023-05-19T06:55:40;11.73;;;5.80;;
8232;SDS011;4157;48.074;9.952;2023-05-19T06:58:07;10.20;;;4.70;;
8232;SDS011;4157;48.074;9.952;2023-05-19T07:00:35;12.80;;;5.63;;
8232;SDS011;4157;48.074;9.952;2023-05-19T07:03:05;9.60;;;5.28;;
8232;SDS011;4157;48.074;9.952;2023-05-19T07:05:34;11.48;;;5.05;;
8232;SDS011;4157;48.074;9.952;2023-05-19T07:08:02;10.07;;;5.63;;
8232;SDS011;4157;48.074;9.952;2023-05-19T07:10:31;11.80;;;5.82;;
8232;SDS011;4157;48.074;9.952;2023-05-19T07:12:59;11.57;;;6.18;;
8232;SDS011;4157;48.074;9.952;2023-05-19T07:15:30;11.38;;;5.32;;
8232;SDS011;4157;48.074;9.952;2023-05-19T07:17:58;11.80;;;5.32;;
8232;SDS011;4157;48.074;9.952;2023-05-19T07:20:26;10.32;;;5.10;;
8232;SDS011;4157;48.074;9.952;2023-05-19T07:22:57;17.00;;;9.80;;
8232;SDS011;4157;48.074;9.952;2023-05-19T07:25:27;10.32;;;5.95;;
8232;SDS011;4157;48.074;9.952;2023-05-19T07:27:56;10.15;;;4.95;;
8232;SDS011;4157;48.074;9.952;2023-05-19T07:30:25;9.18;;;4.78;;
8232;SDS011;4157;48.074;9.952;2023-05-19T07:32:53;10.35;;;5.60;;
8232;SDS011;4157;48.074;9.952;2023-05-19T07:35:20;13.88;;;5.35;;
8232;SDS011;4157;48.074;9.952;2023-05-19T07:37:48;10.10;;;5.15;;
8232;SDS011;4157;48.074;9.952;2023-05-19T07:40:17;9.50;;;4.80;;
8232;SDS011;4157;48.074;9.952;2023-05-19T07:42:45;9.50;;;4.80;;
8232;SDS011;4157;48.074;9.952;2023-05-19T07:45:13;8.00;;;4.70;;
8232;SDS011;4157;48.074;9.952;2023-05-19T07:47:40;11.90;;;5.55;;
8232;SDS011;4157;48.074;9.952;2023-05-19T07:50:08;9.13;;;5.22;;
8232;SDS011;4157;48.074;9.952;2023-05-19T07:52:36;11.15;;;4.90;;
8232;SDS011;4157;48.074;9.952;2023-05-19T07:55:03;9.43;;;4.65;;
8232;SDS011;4157;48.074;9.952;2023-05-19T07:57:33;9.77;;;4.10;;
8232;SDS011;4157;48.074;9.952;2023-05-19T08:00:00;9.00;;;4.45;;
8232;SDS011;4157;48.074;9.952;2023-05-19T08:02:37;11.90;;;4.82;;
8232;SDS011;4157;48.074;9.952;2023-05-19T08:05:05;9.35;;;4.60;;
8232;SDS011;4157;48.074;9.952;2023-05-19T08:07:33;10.98;;;4.40;;
8232;SDS011;4157;48.074;9.952;2023-05-19T08:10:01;9.57;;;3.88;;
8232;SDS011;4157;48.074;9.952;2023-05-19T08:12:29;9.45;;;4.35;;
8232;SDS011;4157;48.074;9.952;2023-05-19T08:14:58;7.80;;;4.38;;
8232;SDS011;4157;48.074;9.952;2023-05-19T08:17:26;7.75;;;3.90;;
8232;SDS011;4157;48.074;9.952;2023-05-19T08:19:54;8.75;;;4.32;;
8232;SDS011;4157;48.074;9.952;2023-05-19T08:22:22;7.70;;;4.10;;
8232;SDS011;4157;48.074;9.952;2023-05-19T08:24:49;10.55;;;3.97;;
8232;SDS011;4157;48.074;9.952;2023-05-19T08:27:17;10.15;;;4.05;;
8232;SDS011;4157;48.074;9.952;2023-05-19T08:29:45;8.00;;;3.95;;
8232;SDS011;4157;48.074;9.952;2023-05-19T08:32:14;8.95;;;3.88;;
8232;SDS011;4157;48.074;9.952;2023-05-19T08:34:42;6.63;;;4.20;;
8232;SDS011;4157;48.074;9.952;2023-05-19T08:37:09;7.95;;;4.35;;
8232;SDS011;4157;48.074;9.952;2023-05-19T08:39:38;7.95;;;3.90;;
8232;SDS011;4157;48.074;9.952;2023-05-19T08:42:05;9.45;;;4.57;;
8232;SDS011;4157;48.074;9.952;2023-05-19T08:44:34;8.45;;;4.50;;
8232;SDS011;4157;48.074;9.952;2023-05-19T08:47:02;9.90;;;4.32;;
8232;SDS011;4157;48.074;9.952;2023-05-19T08:49:41;6.25;;;3.88;;
8232;SDS011;4157;48.074;9.952;2023-05-19T08:52:13;7.95;;;4.00;;
8232;SDS011;4157;48.074;9.952;2023-05-19T08:54:44;9.68;;;4.65;;
8232;SDS011;4157;48.074;9.952;2023-05-19T08:57:13;6.53;;;3.90;;
8232;SDS011;4157;48.074;9.952;2023-05-19T08:59:40;12.02;;;3.92;;
8232;SDS011;4157;48.074;9.952;2023-05-19T09:02:09;7.70;;;4.45;;
8232;SDS011;4157;48.074;9.952;2023-05-19T09:04:38;7.47;;;4.30;;
8232;SDS011;4157;48.074;9.952;2023-05-19T09:07:07;7.50;;;4.10;;
8232;SDS011;4157;48.074;9.952;2023-05-19T09:09:35;6.93;;;3.45;;
8232;SDS011;4157;48.074;9.952;2023-05-19T09:12:07;6.80;;;3.63;;
8232;SDS011;4157;48.074;9.952;2023-05-19T09:14:36;7.78;;;3.85;;
8232;SDS011;4157;48.074;9.952;2023-05-19T09:17:03;6.93;;;3.63;;
8232;SDS011;4157;48.074;9.952;2023-05-19T09:19:31;7.78;;;4.10;;
8232;SDS011;4157;48.074;9.952;2023-05-19T09:21:59;7.43;;;3.63;;
8232;SDS011;4157;48.074;9.952;2023-05-19T09:24:30;9.95;;;3.90;;
8232;SDS011;4157;48.074;9.952;2023-05-19T09:26:58;6.72;;;3.72;;
8232;SDS011;4157;48.074;9.952;2023-05-19T09:29:26;9.43;;;3.83;;
8232;SDS011;4157;48.074;9.952;2023-05-19T09:31:54;9.90;;;3.85;;
8232;SDS011;4157;48.074;9.952;2023-05-19T09:34:25;7.72;;;3.72;;
8232;SDS011;4157;48.074;9.952;2023-05-19T09:36:52;8.32;;;3.90;;
8232;SDS011;4157;48.074;9.952;2023-05-19T09:39:20;7.22;;;3.97;;
8232;SDS011;4157;48.074;9.952;2023-05-19T09:41:51;8.38;;;4.30;;
8232;SDS011;4157;48.074;9.952;2023-05-19T09:44:22;10.10;;;4.35;;
8232;SDS011;4157;48.074;9.952;2023-05-19T09:46:53;8.88;;;4.18;;
8232;SDS011;4157;48.074;9.952;2023-05-19T09:49:21;8.52;;;4.05;;
8232;SDS011;4157;48.074;9.952;2023-05-19T09:51:49;11.50;;;4.65;;
8232;SDS011;4157;48.074;9.952;2023-05-19T09:54:18;8.98;;;4.20;;
8232;SDS011;4157;48.074;9.952;2023-05-19T09:56:51;7.47;;;4.30;;
8232;SDS011;4157;48.074;9.952;2023-05-19T09:59:23;9.75;;;4.55;;
8232;SDS011;4157;48.074;9.952;2023-05-19T10:01:52;7.25;;;3.95;;
8232;SDS011;4157;48.074;9.952;2023-05-19T10:04:21;9.13;;;4.53;;
8232;SDS011;4157;48.074;9.952;2023-05-19T10:06:49;8.48;;;4.10;;
8232;SDS011;4157;48.074;9.952;2023-05-19T10:09:19;10.20;;;4.25;;
8232;SDS011;4157;48.074;9.952;2023-05-19T10:11:51;7.38;;;4.45;;
8232;SDS011;4157;48.074;9.952;2023-05-19T10:14:21;10.80;;;5.00;;
8232;SDS011;4157;48.074;9.952;2023-05-19T10:16:49;8.15;;;4.82;;
8232;SDS011;4157;48.074;9.952;2023-05-19T10:19:17;10.90;;;6.35;;
8232;SDS011;4157;48.074;9.952;2023-05-19T10:21:46;6.72;;;4.53;;
8232;SDS011;4157;48.074;9.952;2023-05-19T10:24:14;8.25;;;4.65;;
8232;SDS011;4157;48.074;9.952;2023-05-19T10:26:43;8.40;;;5.05;;
8232;SDS011;4157;48.074;9.952;2023-05-19T10:29:14;23.85;;;16.55;;
8232;SDS011;4157;48.074;9.952;2023-05-19T10:31:42;11.73;;;5.93;;
8232;SDS011;4157;48.074;9.952;2023-05-19T10:34:13;8.48;;;5.32;;
8232;SDS011;4157;48.074;9.952;2023-05-19T10:36:52;7.30;;;4.60;;
8232;SDS011;4157;48.074;9.952;2023-05-19T10:39:24;17.17;;;10.10;;
8232;SDS011;4157;48.074;9.952;2023-05-19T10:41:53;10.40;;;5.72;;
8232;SDS011;4157;48.074;9.952;2023-05-19T10:44:30;8.60;;;4.65;;
8232;SDS011;4157;48.074;9.952;2023-05-19T10:47:01;9.95;;;5.72;;
8232;SDS011;4157;48.074;9.952;2023-05-19T10:49:29;8.25;;;5.22;;
8232;SDS011;4157;48.074;9.952;2023-05-19T10:52:01;8.13;;;4.50;;
8232;SDS011;4157;48.074;9.952;2023-05-19T10:54:38;10.45;;;5.32;;
8232;SDS011;4157;48.074;9.952;2023-05-19T10:57:07;8.15;;;4.82;;
8232;SDS011;4157;48.074;9.952;2023-05-19T10:59:37;10.48;;;6.28;;
8232;SDS011;4157;48.074;9.952;2023-05-19T11:02:05;8.82;;;4.88;;
8232;SDS011;4157;48.074;9.952;2023-05-19T11:04:39;7.93;;;5.30;;
8232;SDS011;4157;48.074;9.952;2023-05-19T11:07:14;8.32;;;5.07;;
8232;SDS011;4157;48.074;9.952;2023-05-19T11:09:42;10.80;;;5.80;;
8232;SDS011;4157;48.074;9.952;2023-05-19T11:12:10;11.38;;;7.13;;
8232;SDS011;4157;48.074;9.952;2023-05-19T11:14:39;9.32;;;5.90;;
8232;SDS011;4157;48.074;9.952;2023-05-19T11:17:06;9.18;;;7.00;;
8232;SDS011;4157;48.074;9.952;2023-05-19T11:19:39;9.43;;;5.97;;
8232;SDS011;4157;48.074;9.952;2023-05-19T11:22:20;9.02;;;5.45;;
8232;SDS011;4157;48.074;9.952;2023-05-19T11:24:48;12.05;;;5.85;;
8232;SDS011;4157;48.074;9.952;2023-05-19T11:27:18;11.05;;;7.03;;
8232;SDS011;4157;48.074;9.952;2023-05-19T11:29:48;11.77;;;6.70;;
8232;SDS011;4157;48.074;9.952;2023-05-19T11:32:15;12.90;;;6.15;;
8232;SDS011;4157;48.074;9.952;2023-05-19T11:34:43;11.45;;;6.15;;
8232;SDS011;4157;48.074;9.952;2023-05-19T11:37:12;13.68;;;7.15;;
8232;SDS011;4157;48.074;9.952;2023-05-19T11:39:40;9.98;;;6.25;;
8232;SDS011;4157;48.074;9.952;2023-05-19T11:42:09;8.70;;;6.30;;
8232;SDS011;4157;48.074;9.952;2023-05-19T11:44:37;9.98;;;6.68;;
8232;SDS011;4157;48.074;9.952;2023-05-19T11:47:07;11.80;;;6.85;;
8232;SDS011;4157;48.074;9.952;2023-05-19T11:49:34;11.57;;;7.65;;
8232;SDS011;4157;48.074;9.952;2023-05-19T11:52:02;10.23;;;6.90;;
8232;SDS011;4157;48.074;9.952;2023-05-19T11:54:34;11.70;;;6.80;;
8232;SDS011;4157;48.074;9.952;2023-05-19T11:57:04;9.65;;;6.70;;
8232;SDS011;4157;48.074;9.952;2023-05-19T11:59:32;10.63;;;6.85;;
8232;SDS011;4157;48.074;9.952;2023-05-19T12:02:00;10.02;;;7.30;;
8232;SDS011;4157;48.074;9.952;2023-05-19T12:04:30;10.70;;;6.82;;
8232;SDS011;4157;48.074;9.952;2023-05-19T12:06:58;10.98;;;6.55;;
8232;SDS011;4157;48.074;9.952;2023-05-19T12:09:27;16.48;;;11.90;;
8232;SDS011;4157;48.074;9.952;2023-05-19T12:11:54;11.68;;;7.10;;
8232;SDS011;4157;48.074;9.952;2023-05-19T12:14:24;14.88;;;8.30;;
8232;SDS011;4157;48.074;9.952;2023-05-19T12:16:52;23.50;;;15.02;;
8232;SDS011;4157;48.074;9.952;2023-05-19T12:19:21;16.75;;;10.65;;
8232;SDS011;4157;48.074;9.952;2023-05-19T12:21:51;11.32;;;7.60;;
8232;SDS011;4157;48.074;9.952;2023-05-19T12:24:19;9.88;;;6.25;;
8232;SDS011;4157;48.074;9.952;2023-05-19T12:26:49;18.15;;;11.73;;
8232;SDS011;4157;48.074;9.952;2023-05-19T12:29:17;20.52;;;14.00;;
8232;SDS011;4157;48.074;9.952;2023-05-19T12:31:45;8.95;;;5.95;;
8232;SDS011;4157;48.074;9.952;2023-05-19T12:34:14;10.77;;;6.18;;
8232;SDS011;4157;48.074;9.952;2023-05-19T12:36:41;10.75;;;6.18;;
8232;SDS011;4157;48.074;9.952;2023-05-19T12:39:10;8.70;;;5.65;;
8232;SDS011;4157;48.074;9.952;2023-05-19T12:41:38;9.20;;;5.82;;
8232;SDS011;4157;48.074;9.952;2023-05-19T12:44:12;11.02;;;6.20;;
8232;SDS011;4157;48.074;9.952;2023-05-19T12:46:40;10.02;;;5.80;;
8232;SDS011;4157;48.074;9.952;2023-05-19T12:49:08;7.53;;;5.22;;
8232;SDS011;4157;48.074;9.952;2023-05-19T12:51:37;7.35;;;4.90;;
8232;SDS011;4157;48.074;9.952;2023-05-19T12:54:05;8.63;;;5.78;;
8232;SDS011;4157;48.074;9.952;2023-05-19T12:56:34;9.35;;;5.47;;
8232;SDS011;4157;48.074;9.952;2023-05-19T12:59:01;10.38;;;5.75;;
8232;SDS011;4157;48.074;9.952;2023-05-19T13:01:29;8.98;;;5.30;;
8232;SDS011;4157;48.074;9.952;2023-05-19T13:03:57;8.40;;;5.20;;
8232;SDS011;4157;48.074;9.952;2023-05-19T13:06:25;8.88;;;5.53;;
8232;SDS011;4157;48.074;9.952;2023-05-19T13:08:53;9.75;;;6.47;;
8232;SDS011;4157;48.074;9.952;2023-05-19T13:11:21;12.88;;;6.53;;
8232;SDS011;4157;48.074;9.952;2023-05-19T13:14:10;11.85;;;6.35;;
8232;SDS011;4157;48.074;9.952;2023-05-19T13:16:58;9.88;;;5.88;;
8232;SDS011;4157;48.074;9.952;2023-05-19T13:19:26;9.00;;;6.03;;
8232;SDS011;4157;48.074;9.952;2023-05-19T13:21:54;10.65;;;6.20;;
8232;SDS011;4157;48.074;9.952;2023-05-19T13:24:22;10.90;;;6.47;;
8232;SDS011;4157;48.074;9.952;2023-05-19T13:26:49;8.60;;;5.72;;
8232;SDS011;4157;48.074;9.952;2023-05-19T13:29:18;12.20;;;7.68;;
8232;SDS011;4157;48.074;9.952;2023-05-19T13:31:46;8.68;;;6.28;;
8232;SDS011;4157;48.074;9.952;2023-05-19T13:34:14;9.20;;;6.25;;
8232;SDS011;4157;48.074;9.952;2023-05-19T13:36:44;9.70;;;5.65;;
8232;SDS011;4157;48.074;9.952;2023-05-19T13:39:13;14.80;;;5.95;;
8232;SDS011;4157;48.074;9.952;2023-05-19T13:41:41;8.43;;;5.40;;
8232;SDS011;4157;48.074;9.952;2023-05-19T13:44:08;11.07;;;7.55;;
8232;SDS011;4157;48.074;9.952;2023-05-19T13:46:37;8.23;;;5.85;;
8232;SDS011;4157;48.074;9.952;2023-05-19T13:49:05;9.23;;;6.00;;
8232;SDS011;4157;48.074;9.952;2023-05-19T13:51:33;10.02;;;6.57;;
8232;SDS011;4157;48.074;9.952;2023-05-19T13:54:00;13.45;;;7.47;;
8232;SDS011;4157;48.074;9.952;2023-05-19T13:56:29;11.82;;;8.02;;
8232;SDS011;4157;48.074;9.952;2023-05-19T13:58:57;12.32;;;8.32;;
8232;SDS011;4157;48.074;9.952;2023-05-19T14:01:24;11.02;;;6.90;;
8232;SDS011;4157;48.074;9.952;2023-05-19T14:03:53;10.73;;;6.70;;
8232;SDS011;4157;48.074;9.952;2023-05-19T14:06:21;9.95;;;7.07;;
8232;SDS011;4157;48.074;9.952;2023-05-19T14:08:49;11.02;;;6.93;;
8232;SDS011;4157;48.074;9.952;2023-05-19T14:11:17;11.95;;;6.47;;
8232;SDS011;4157;48.074;9.952;2023-05-19T14:13:46;10.45;;;7.57;;
8232;SDS011;4157;48.074;9.952;2023-05-19T14:16:14;13.18;;;7.38;;
8232;SDS011;4157;48.074;9.952;2023-05-19T14:18:41;10.30;;;6.28;;
8232;SDS011;4157;48.074;9.952;2023-05-19T14:21:11;10.55;;;6.35;;
8232;SDS011;4157;48.074;9.952;2023-05-19T14:23:38;10.80;;;7.25;;
8232;SDS011;4157;48.074;9.952;2023-05-19T14:26:06;12.57;;;7.85;;
8232;SDS011;4157;48.074;9.952;2023-05-19T14:28:34;10.55;;;7.43;;
8232;SDS011;4157;48.074;9.952;2023-05-19T14:31:01;9.55;;;7.00;;
8232;SDS011;4157;48.074;9.952;2023-05-19T14:33:29;13.82;;;9.45;;
8232;SDS011;4157;48.074;9.952;2023-05-19T14:35:57;10.68;;;7.30;;
8232;SDS011;4157;48.074;9.952;2023-05-19T14:38:26;10.80;;;7.57;;
8232;SDS011;4157;48.074;9.952;2023-05-19T14:40:54;9.68;;;6.68;;
8232;SDS011;4157;48.074;9.952;2023-05-19T14:43:22;12.52;;;7.90;;
8232;SDS011;4157;48.074;9.952;2023-05-19T14:45:49;10.00;;;7.32;;
8232;SDS011;4157;48.074;9.952;2023-05-19T14:48:17;16.88;;;9.95;;
8232;SDS011;4157;48.074;9.952;2023-05-19T14:50:46;16.48;;;9.70;;
8232;SDS011;4157;48.074;9.952;2023-05-19T14:53:13;11.40;;;7.45;;
8232;SDS011;4157;48.074;9.952;2023-05-19T14:55:43;15.73;;;8.10;;
8232;SDS011;4157;48.074;9.952;2023-05-19T14:58:10;21.35;;;12.82;;
8232;SDS011;4157;48.074;9.952;2023-05-19T15:00:38;10.75;;;7.50;;
8232;SDS011;4157;48.074;9.952;2023-05-19T15:03:06;16.45;;;8.68;;
8232;SDS011;4157;48.074;9.952;2023-05-19T15:05:35;10.02;;;6.45;;
8232;SDS011;4157;48.074;9.952;2023-05-19T15:08:04;9.13;;;6.28;;
8232;SDS011;4157;48.074;9.952;2023-05-19T15:10:32;10.52;;;5.72;;
8232;SDS011;4157;48.074;9.952;2023-05-19T15:13:01;10.65;;;6.82;;
8232;SDS011;4157;48.074;9.952;2023-05-19T15:15:29;15.23;;;7.45;;
8232;SDS011;4157;48.074;9.952;2023-05-19T15:17:57;11.25;;;7.07;;
8232;SDS011;4157;48.074;9.952;2023-05-19T15:20:24;11.23;;;7.47;;